Time;durP1;ratioP1;P1;durP2;ratioP2;P2;SDS_P1;SDS_P2;PMS_P1;PMS_P2;Temp;Humidity;BMP_temperature;BMP_pressure;BME280_temperature;BME280_humidity;BME280_pressure;Samples;Min_cycle;Max_cycle;Signal;HPM_P1;HPM_P2
2022/02/12 00:00:24;;;;;;;1.42;0.90;;;0.00;89.60;;;;;;5056296;28;20059;-79
2022/02/12 00:02:52;;;;;;;2.90;1.33;;;0.10;90.10;;;;;;5073911;28;20355;-79
2022/02/12 00:05:18;;;;;;;2.20;1.25;;;0.00;89.90;;;;;;5056131;28;20056;-78
2022/02/12 00:07:44;;;;;;;1.25;0.68;;;0.00;89.30;;;;;;5073725;28;20025;-80
2022/02/12 00:10:10;;;;;;;2.75;0.70;;;0.00;89.10;;;;;;5073542;28;20086;-80
2022/02/12 00:12:36;;;;;;;1.13;0.68;;;0.00;88.70;;;;;;5055672;28;20033;-79
2022/02/12 00:15:02;;;;;;;5.43;2.00;;;0.00;88.90;;;;;;5073481;28;20459;-78
2022/02/12 00:17:28;;;;;;;3.60;1.40;;;0.00;89.20;;;;;;5056056;28;20380;-79
2022/02/12 00:19:54;;;;;;;2.72;1.25;;;0.00;89.40;;;;;;5073511;28;20135;-80
2022/02/12 00:22:19;;;;;;;3.17;1.73;;;0.00;89.60;;;;;;5055861;28;20064;-79
2022/02/12 00:24:45;;;;;;;1.98;1.20;;;-0.10;90.10;;;;;;5055621;28;20059;-79
2022/02/12 00:27:10;;;;;;;2.30;0.98;;;-0.10;90.30;;;;;;5055601;28;20475;-80
2022/02/12 00:29:36;;;;;;;3.28;0.85;;;-0.10;90.40;;;;;;5073462;28;20123;-77
2022/02/12 00:32:03;;;;;;;2.78;0.80;;;-0.20;90.60;;;;;;5073334;28;20025;-80
2022/02/12 00:34:28;;;;;;;0.93;0.60;;;-0.20;90.70;;;;;;5055647;28;20120;-79
2022/02/12 00:36:54;;;;;;;1.75;0.70;;;-0.30;90.90;;;;;;5073490;28;20088;-80
2022/02/12 00:39:20;;;;;;;0.90;0.60;;;-0.30;91.30;;;;;;5073035;28;20068;-78
2022/02/12 00:41:45;;;;;;;0.70;0.50;;;-0.30;91.40;;;;;;5073318;28;20036;-80
2022/02/12 00:44:11;;;;;;;1.85;0.65;;;-0.40;91.60;;;;;;5055334;28;20039;-81
2022/02/12 00:46:36;;;;;;;1.70;1.00;;;-0.50;91.90;;;;;;5055428;28;20052;-80
2022/02/12 00:49:03;;;;;;;0.38;0.38;;;-0.50;91.80;;;;;;5073115;28;20154;-79
2022/02/12 00:51:30;;;;;;;2.15;0.60;;;-0.50;91.40;;;;;;5054731;28;20020;-79
2022/02/12 00:53:56;;;;;;;0.57;0.47;;;-0.50;91.40;;;;;;5055127;28;20067;-79
2022/02/12 00:56:22;;;;;;;0.52;0.38;;;-0.50;91.50;;;;;;5055085;28;20109;-79
2022/02/12 00:58:48;;;;;;;0.30;0.30;;;-0.60;91.50;;;;;;5072869;28;20032;-79
2022/02/12 01:01:13;;;;;;;0.40;0.40;;;-0.60;92.00;;;;;;5055223;28;20032;-78
2022/02/12 01:03:39;;;;;;;0.80;0.35;;;-0.60;92.10;;;;;;5054680;28;20123;-79
2022/02/12 01:06:05;;;;;;;0.47;0.40;;;-0.60;92.40;;;;;;5073072;28;20024;-81
2022/02/12 01:08:30;;;;;;;0.55;0.30;;;-0.80;92.70;;;;;;5073018;28;20027;-77
2022/02/12 01:10:56;;;;;;;1.80;0.43;;;-0.80;92.80;;;;;;5072393;28;20092;-78
2022/02/12 01:13:22;;;;;;;0.40;0.40;;;-0.90;93.10;;;;;;5054807;28;20025;-79
2022/02/12 01:15:47;;;;;;;1.33;0.38;;;-0.90;93.80;;;;;;5072857;28;20535;-80
2022/02/12 01:18:13;;;;;;;0.40;0.40;;;-0.90;94.10;;;;;;5072879;28;20064;-79
2022/02/12 01:20:39;;;;;;;0.52;0.40;;;-1.00;94.40;;;;;;5055195;28;20039;-80
2022/02/12 01:23:05;;;;;;;2.80;2.55;;;-1.00;94.30;;;;;;5072888;28;20044;-81
2022/02/12 01:25:31;;;;;;;0.88;0.60;;;-1.00;93.80;;;;;;5072480;28;20476;-79
2022/02/12 01:27:57;;;;;;;2.22;1.00;;;-0.90;93.50;;;;;;5072783;28;20020;-79
2022/02/12 01:30:23;;;;;;;1.73;0.85;;;-0.90;94.10;;;;;;5054887;28;20348;-78
2022/02/12 01:32:49;;;;;;;2.25;0.80;;;-0.90;93.90;;;;;;5072648;28;20074;-80
2022/02/12 01:35:14;;;;;;;5.72;2.55;;;-0.90;93.80;;;;;;5054648;28;20082;-79
2022/02/12 01:37:41;;;;;;;6.70;2.83;;;-0.90;94.10;;;;;;5072673;28;20178;-79
2022/02/12 01:40:07;;;;;;;5.60;3.05;;;-0.90;94.40;;;;;;5072555;28;20086;-79
2022/02/12 01:42:33;;;;;;;8.45;2.58;;;-0.90;94.80;;;;;;5054429;28;20032;-78
2022/02/12 01:45:03;;;;;;;4.63;2.40;;;-0.90;94.90;;;;;;5072429;28;20016;-79
2022/02/12 01:47:29;;;;;;;3.33;1.50;;;-1.00;94.80;;;;;;5072420;28;20016;-78
2022/02/12 01:49:55;;;;;;;4.68;1.85;;;-0.90;94.80;;;;;;5072479;28;20025;-79
2022/02/12 01:52:22;;;;;;;4.30;1.60;;;-0.90;94.90;;;;;;5072572;28;20025;-79
2022/02/12 01:54:48;;;;;;;3.90;1.50;;;-0.90;94.80;;;;;;5072354;28;20020;-78
2022/02/12 01:57:14;;;;;;;3.40;2.10;;;-0.90;94.80;;;;;;5072303;28;20043;-79
2022/02/12 01:59:40;;;;;;;2.97;1.27;;;-1.00;94.90;;;;;;5072330;28;20440;-81
2022/02/12 02:02:07;;;;;;;2.17;1.30;;;-1.00;95.30;;;;;;5056054;28;20111;-78
2022/02/12 02:04:33;;;;;;;3.80;1.70;;;-1.10;95.80;;;;;;5057356;28;20391;-76
2022/02/12 02:06:59;;;;;;;4.57;1.63;;;-1.20;96.20;;;;;;5075346;28;20024;-77
2022/02/12 02:09:28;;;;;;;2.15;1.10;;;-1.20;96.60;;;;;;5057358;28;20036;-78
2022/02/12 02:11:54;;;;;;;1.98;1.25;;;-1.20;96.80;;;;;;5076789;28;20044;-77
2022/02/12 02:14:28;;;;;;;2.78;1.67;;;-1.30;97.00;;;;;;5059020;28;20075;-83
2022/02/12 02:16:54;;;;;;;3.28;1.10;;;-1.40;97.10;;;;;;5076641;28;20032;-77
2022/02/12 02:19:19;;;;;;;2.47;1.20;;;-1.40;97.20;;;;;;5059082;28;20029;-76
2022/02/12 02:21:47;;;;;;;2.33;1.25;;;-1.40;97.30;;;;;;5076469;28;20013;-80
2022/02/12 02:24:17;;;;;;;2.17;1.15;;;-1.40;97.20;;;;;;5075986;28;20425;-80
2022/02/12 02:26:43;;;;;;;1.50;1.10;;;-1.50;97.20;;;;;;5075870;28;20021;-80
2022/02/12 02:29:09;;;;;;;2.40;1.15;;;-1.50;97.20;;;;;;5075544;28;20029;-78
2022/02/12 02:31:34;;;;;;;2.58;1.35;;;-1.50;97.20;;;;;;5075778;28;20396;-78
2022/02/12 02:34:07;;;;;;;1.50;0.80;;;-1.50;97.20;;;;;;5057663;28;20035;-79
2022/02/12 02:36:33;;;;;;;1.15;0.75;;;-1.50;97.60;;;;;;5075564;28;20028;-78
2022/02/12 02:38:59;;;;;;;3.97;1.00;;;-1.60;97.80;;;;;;5075919;28;20029;-79
2022/02/12 02:41:24;;;;;;;3.30;1.50;;;-1.60;98.00;;;;;;5057628;28;20562;-80
2022/02/12 02:43:50;;;;;;;2.75;1.25;;;-1.70;98.20;;;;;;5057756;28;20099;-78
2022/02/12 02:46:16;;;;;;;3.25;1.15;;;-1.60;98.40;;;;;;5075450;28;20020;-78
2022/02/12 02:48:41;;;;;;;2.22;1.35;;;-1.70;98.50;;;;;;5057415;28;20024;-79
2022/02/12 02:56:35;;;;;;;2.00;0.60;;;-1.80;99.40;;;;;;5075402;28;20031;-78
2022/02/12 02:59:01;;;;;;;1.88;0.88;;;-1.80;99.90;;;;;;5057299;28;20033;-78
2022/02/12 03:01:30;;;;;;;2.15;1.70;;;-1.80;99.90;;;;;;5057025;28;20380;-78
2022/02/12 03:03:56;;;;;;;3.13;0.90;;;-1.80;99.90;;;;;;5075358;28;20020;-80
2022/02/12 03:06:27;;;;;;;1.73;1.02;;;-1.80;99.90;;;;;;5075415;28;20539;-79
2022/02/12 03:08:53;;;;;;;1.90;1.05;;;-1.80;99.90;;;;;;5057244;28;20024;-79
2022/02/12 03:11:20;;;;;;;3.42;1.42;;;-1.80;99.90;;;;;;5074979;28;20024;-78
2022/02/12 03:13:48;;;;;;;2.67;0.90;;;-1.80;99.90;;;;;;5074628;28;20078;-78
2022/02/12 03:16:14;;;;;;;2.15;1.30;;;-1.80;99.90;;;;;;5056889;28;20493;-79
2022/02/12 03:18:43;;;;;;;3.05;1.20;;;-1.80;99.90;;;;;;5057072;28;20085;-76
2022/02/12 03:21:09;;;;;;;7.60;1.33;;;-1.80;99.90;;;;;;5074819;28;20479;-78
2022/02/12 03:23:35;;;;;;;1.55;0.80;;;-1.80;99.90;;;;;;5074670;28;20033;-79
2022/02/12 03:26:01;;;;;;;1.38;1.08;;;-1.90;99.90;;;;;;5056837;28;20421;-78
2022/02/12 03:28:27;;;;;;;4.30;0.90;;;-1.90;99.90;;;;;;5056906;28;20081;-78
2022/02/12 03:30:52;;;;;;;4.38;0.90;;;-1.90;99.90;;;;;;5074718;28;20510;-77
2022/02/12 03:33:18;;;;;;;2.72;1.20;;;-1.90;99.90;;;;;;5074759;28;20032;-78
2022/02/12 03:35:46;;;;;;;2.83;1.02;;;-1.90;99.90;;;;;;5074483;28;20386;-78
2022/02/12 03:38:12;;;;;;;2.17;0.70;;;-1.90;99.90;;;;;;5074404;28;20020;-77
2022/02/12 03:40:42;;;;;;;1.05;1.00;;;-2.00;99.90;;;;;;5074661;28;20447;-79
2022/02/12 03:43:08;;;;;;;1.98;1.13;;;-2.00;99.90;;;;;;5074240;28;20512;-79
2022/02/12 03:45:35;;;;;;;1.50;0.73;;;-2.00;99.90;;;;;;5056191;28;20021;-78
2022/02/12 03:48:00;;;;;;;0.90;0.77;;;-2.00;99.90;;;;;;5074054;28;20056;-78
2022/02/12 03:50:31;;;;;;;1.80;1.25;;;-2.00;99.90;;;;;;5074354;28;20638;-79
2022/02/12 03:52:58;;;;;;;2.42;1.17;;;-2.00;99.90;;;;;;5074198;28;20048;-77
2022/02/12 03:55:23;;;;;;;4.47;1.50;;;-2.00;99.90;;;;;;5073981;28;20056;-78
2022/02/12 03:57:49;;;;;;;2.47;1.10;;;-2.10;99.90;;;;;;5074039;28;20082;-78
2022/02/12 04:00:16;;;;;;;3.75;1.90;;;-2.00;99.90;;;;;;5073630;28;20029;-79
2022/02/12 04:02:42;;;;;;;2.58;1.70;;;-2.10;99.90;;;;;;5055744;28;20025;-78
2022/02/12 04:05:13;;;;;;;2.50;2.05;;;-2.10;99.90;;;;;;5055830;28;20032;-78
2022/02/12 04:07:41;;;;;;;2.15;1.52;;;-2.10;99.90;;;;;;5073895;28;20040;-78
2022/02/12 04:10:16;;;;;;;2.25;0.90;;;-2.10;99.90;;;;;;5073925;28;20031;-77
2022/02/12 04:12:42;;;;;;;1.20;0.70;;;-2.10;99.90;;;;;;5055619;28;20021;-77
2022/02/12 04:15:09;;;;;;;1.67;1.58;;;-2.10;99.90;;;;;;5055686;28;20097;-80
2022/02/12 04:17:35;;;;;;;0.73;0.73;;;-2.10;99.90;;;;;;5072960;28;20049;-79
2022/02/12 04:20:03;;;;;;;0.77;0.70;;;-2.20;99.90;;;;;;5072258;28;20028;-78
2022/02/12 04:22:33;;;;;;;0.95;0.80;;;-2.30;99.90;;;;;;5054851;28;20485;-78
2022/02/12 04:24:59;;;;;;;1.92;0.40;;;-2.30;99.90;;;;;;5054081;28;20033;-78
2022/02/12 04:27:26;;;;;;;0.95;0.77;;;-2.30;99.90;;;;;;5072565;28;20070;-78
2022/02/12 04:29:51;;;;;;;2.63;0.95;;;-2.40;99.90;;;;;;5054595;28;20024;-78
2022/02/12 04:32:17;;;;;;;1.75;0.80;;;-2.40;99.90;;;;;;5072662;28;20029;-78
2022/02/12 04:34:43;;;;;;;1.45;0.70;;;-2.40;99.90;;;;;;5054874;28;20036;-79
2022/02/12 04:37:09;;;;;;;2.17;0.70;;;-2.40;99.90;;;;;;5054348;28;20101;-77
2022/02/12 04:39:34;;;;;;;3.53;1.88;;;-2.40;99.90;;;;;;5054363;28;20498;-79
2022/02/12 04:42:00;;;;;;;3.05;1.45;;;-2.40;99.90;;;;;;5072634;28;20020;-78
2022/02/12 04:44:26;;;;;;;3.63;1.58;;;-2.40;99.90;;;;;;5072079;28;20025;-78
2022/02/12 04:46:51;;;;;;;3.25;1.48;;;-2.40;99.90;;;;;;5072550;28;20536;-78
2022/02/12 04:49:22;;;;;;;5.38;2.42;;;-2.40;99.90;;;;;;5072067;28;20487;-78
2022/02/12 04:51:47;;;;;;;5.05;2.13;;;-2.40;99.90;;;;;;5054240;28;20052;-76
2022/02/12 04:54:13;;;;;;;4.43;1.83;;;-2.40;99.90;;;;;;5071950;28;20032;-77
2022/02/12 04:56:39;;;;;;;8.43;5.22;;;-2.40;99.90;;;;;;5054211;28;20025;-79
2022/02/12 04:59:04;;;;;;;4.93;2.67;;;-2.40;99.90;;;;;;5054055;28;20041;-77
2022/02/12 05:01:30;;;;;;;4.72;1.77;;;-2.40;99.90;;;;;;5071952;28;20421;-77
2022/02/12 05:03:56;;;;;;;6.05;2.38;;;-2.30;99.90;;;;;;5053646;28;20031;-78
2022/02/12 05:06:22;;;;;;;3.80;1.83;;;-2.30;99.90;;;;;;5071135;28;20020;-78
2022/02/12 05:08:48;;;;;;;3.92;1.98;;;-2.30;99.90;;;;;;5054229;28;20047;-79
2022/02/12 05:11:14;;;;;;;2.55;1.63;;;-2.30;99.90;;;;;;5071886;28;20494;-78
2022/02/12 05:13:39;;;;;;;1.70;1.40;;;-2.40;99.90;;;;;;5071734;28;20024;-76
2022/02/12 05:16:06;;;;;;;11.68;6.68;;;-2.30;99.90;;;;;;5071743;28;20028;-75
2022/02/12 05:18:32;;;;;;;10.25;5.35;;;-2.30;99.90;;;;;;5032738;28;1117601;-77
2022/02/12 05:20:58;;;;;;;6.72;2.92;;;-2.30;99.90;;;;;;5072113;28;20502;-77
2022/02/12 05:23:24;;;;;;;4.30;1.85;;;-2.40;99.90;;;;;;5072362;28;20021;-79
2022/02/12 05:25:50;;;;;;;2.83;1.35;;;-2.40;99.90;;;;;;5072286;28;20032;-77
2022/02/12 05:28:15;;;;;;;4.90;2.80;;;-2.40;99.90;;;;;;5072263;28;20025;-78
2022/02/12 05:30:41;;;;;;;7.20;1.65;;;-2.40;99.90;;;;;;5072342;28;20074;-78
2022/02/12 05:33:07;;;;;;;4.82;2.40;;;-2.50;99.90;;;;;;5054566;28;20021;-77
2022/02/12 05:35:33;;;;;;;5.70;2.80;;;-2.50;99.90;;;;;;5054401;28;20082;-78
2022/02/12 05:37:59;;;;;;;6.90;3.95;;;-2.60;99.90;;;;;;5075679;28;20032;-79
2022/02/12 05:40:24;;;;;;;11.95;5.50;;;-2.60;99.90;;;;;;5058445;28;20040;-78
2022/02/12 05:42:50;;;;;;;7.53;5.47;;;-2.60;99.90;;;;;;5076616;28;20027;-79
2022/02/12 05:45:16;;;;;;;12.85;5.45;;;-2.60;99.90;;;;;;5076622;28;20020;-79
2022/02/12 05:47:42;;;;;;;5.32;3.22;;;-2.60;99.90;;;;;;5058636;28;20379;-77
2022/02/12 05:50:09;;;;;;;9.13;5.50;;;-2.60;99.90;;;;;;5058172;28;20163;-77
2022/02/12 05:52:36;;;;;;;27.25;11.88;;;-2.70;99.90;;;;;;5075906;28;20477;-75
2022/02/12 05:55:02;;;;;;;18.42;10.00;;;-2.60;99.90;;;;;;5058346;28;20086;-80
2022/02/12 05:57:28;;;;;;;4.22;2.20;;;-2.60;99.90;;;;;;5075920;28;20709;-78
2022/02/12 05:59:53;;;;;;;11.55;5.65;;;-2.60;99.90;;;;;;5076139;28;20467;-79
2022/02/12 06:02:19;;;;;;;11.23;5.88;;;-2.60;99.90;;;;;;5075872;28;20039;-77
2022/02/12 06:04:45;;;;;;;8.90;4.80;;;-2.60;99.90;;;;;;5058152;28;20025;-78
2022/02/12 06:07:10;;;;;;;8.48;3.42;;;-2.70;99.90;;;;;;5076068;28;20455;-80
2022/02/12 06:09:37;;;;;;;6.63;3.30;;;-2.70;99.90;;;;;;5075957;28;20028;-79
2022/02/12 06:12:04;;;;;;;5.60;4.05;;;-2.70;99.90;;;;;;5075714;28;20017;-78
2022/02/12 06:14:30;;;;;;;11.10;6.72;;;-2.70;99.90;;;;;;5075294;28;20024;-76
2022/02/12 06:16:58;;;;;;;15.57;7.45;;;-2.80;99.90;;;;;;5057534;28;20041;-79
2022/02/12 06:19:24;;;;;;;10.25;4.90;;;-2.80;99.90;;;;;;5075905;28;20372;-78
2022/02/12 06:21:50;;;;;;;9.98;5.50;;;-2.80;99.90;;;;;;5075521;28;20083;-77
2022/02/12 06:24:16;;;;;;;6.40;3.47;;;-2.80;99.90;;;;;;5075822;28;20020;-78
2022/02/12 06:26:46;;;;;;;9.65;4.45;;;-2.80;99.90;;;;;;5075710;28;20360;-79
2022/02/12 06:29:13;;;;;;;5.32;2.83;;;-2.70;99.90;;;;;;5057717;28;20025;-79
2022/02/12 06:31:39;;;;;;;16.90;6.10;;;-2.70;99.90;;;;;;5057680;28;20054;-77
2022/02/12 06:34:06;;;;;;;15.40;8.18;;;-2.70;99.90;;;;;;5075340;28;20016;-79
2022/02/12 06:36:31;;;;;;;16.33;7.22;;;-2.80;99.90;;;;;;5057553;28;20024;-79
2022/02/12 06:38:57;;;;;;;9.10;4.68;;;-2.80;99.90;;;;;;5074465;28;20455;-76
2022/02/12 06:41:23;;;;;;;8.05;6.35;;;-2.70;99.90;;;;;;5075341;28;20063;-77
2022/02/12 06:43:49;;;;;;;5.07;2.10;;;-1.90;99.90;;;;;;5075053;28;20051;-81
2022/02/12 06:46:14;;;;;;;3.47;2.03;;;-1.90;99.90;;;;;;5057426;28;20119;-80
2022/02/12 06:48:40;;;;;;;3.22;2.30;;;-1.90;99.90;;;;;;5056593;28;20020;-80
2022/02/12 06:51:06;;;;;;;2.20;1.73;;;-2.00;99.90;;;;;;5059199;28;20532;-80
2022/02/12 06:53:33;;;;;;;4.47;2.10;;;-2.10;99.90;;;;;;5074684;28;20024;-79
2022/02/12 06:56:00;;;;;;;16.45;8.82;;;-2.20;99.90;;;;;;5074474;28;20048;-78
2022/02/12 06:58:26;;;;;;;13.13;6.20;;;-2.20;99.90;;;;;;5074846;28;20779;-81
2022/02/12 07:00:51;;;;;;;6.72;3.80;;;-2.20;99.90;;;;;;5074962;28;20092;-78
2022/02/12 07:03:17;;;;;;;5.00;2.58;;;-2.10;99.90;;;;;;5056504;28;20040;-78
2022/02/12 07:05:43;;;;;;;7.60;2.70;;;-2.10;99.90;;;;;;5074202;28;20030;-77
2022/02/12 07:08:08;;;;;;;5.68;2.65;;;-2.10;99.90;;;;;;5074494;28;20056;-77
2022/02/12 07:10:36;;;;;;;9.05;4.25;;;-2.00;99.90;;;;;;5074330;28;20409;-78
2022/02/12 07:13:02;;;;;;;12.57;6.15;;;-1.90;99.90;;;;;;5056770;28;20024;-78
2022/02/12 07:15:28;;;;;;;6.63;3.90;;;-1.90;99.90;;;;;;5074544;28;20028;-77
2022/02/12 07:17:53;;;;;;;8.00;4.10;;;-1.80;99.90;;;;;;5073981;28;20053;-78
2022/02/12 07:20:20;;;;;;;3.25;2.05;;;-1.70;99.90;;;;;;5056165;28;20028;-78
2022/02/12 07:22:45;;;;;;;6.85;3.25;;;-1.70;99.90;;;;;;5074530;28;20035;-78
2022/02/12 07:25:13;;;;;;;4.18;3.22;;;-1.60;99.90;;;;;;5074288;28;20099;-78
2022/02/12 07:27:40;;;;;;;9.95;3.22;;;-1.50;99.90;;;;;;5074707;28;20104;-78
2022/02/12 07:30:12;;;;;;;5.60;4.97;;;-1.40;99.90;;;;;;5073679;28;20028;-78
2022/02/12 07:32:39;;;;;;;6.03;4.60;;;-1.30;99.90;;;;;;5073697;28;20094;-79
2022/02/12 07:35:10;;;;;;;10.82;4.50;;;-1.20;99.90;;;;;;5056147;28;20025;-79
2022/02/12 07:37:39;;;;;;;6.18;3.67;;;-1.10;99.90;;;;;;5074275;28;20024;-80
2022/02/12 07:40:06;;;;;;;6.38;3.22;;;-1.00;99.90;;;;;;5073304;28;20090;-78
2022/02/12 07:42:32;;;;;;;9.10;4.68;;;-0.90;99.90;;;;;;5073462;28;20024;-76
2022/02/12 07:44:58;;;;;;;10.07;3.70;;;-0.70;99.90;;;;;;5055451;28;20055;-81
2022/02/12 07:47:23;;;;;;;4.53;2.95;;;-0.60;99.90;;;;;;5056473;28;20073;-77
2022/02/12 07:49:50;;;;;;;7.85;2.88;;;-0.60;99.90;;;;;;5074415;28;20028;-84
2022/02/12 07:52:15;;;;;;;7.30;3.10;;;-0.50;99.90;;;;;;5056807;28;20016;-79
2022/02/12 07:54:41;;;;;;;5.28;3.47;;;-0.40;99.90;;;;;;5056253;28;20383;-80
2022/02/12 07:57:06;;;;;;;13.98;7.95;;;-0.30;99.90;;;;;;5074261;28;20073;-78
2022/02/12 07:59:32;;;;;;;9.10;4.50;;;-0.20;99.90;;;;;;5072964;28;20475;-78
2022/02/12 08:01:58;;;;;;;11.55;4.03;;;-0.10;99.90;;;;;;5055972;28;20356;-79
2022/02/12 08:04:23;;;;;;;9.90;4.05;;;0.10;99.90;;;;;;5056168;28;20447;-78
2022/02/12 08:09:33;;;;;;;8.88;3.70;;;0.20;99.90;;;;;;5073075;28;20039;-79
2022/02/12 08:12:14;;;;;;;5.97;3.65;;;0.40;99.90;;;;;;5073390;28;20021;-78
2022/02/12 08:14:45;;;;;;;10.02;3.63;;;0.40;99.90;;;;;;5073175;28;20150;-77
2022/02/12 08:17:12;;;;;;;12.35;3.88;;;0.50;99.90;;;;;;5072674;28;20052;-78
2022/02/12 08:19:38;;;;;;;18.25;5.90;;;0.70;99.90;;;;;;5072567;28;20112;-77
2022/02/12 08:22:07;;;;;;;27.17;6.13;;;0.80;99.90;;;;;;5073111;28;20044;-79
2022/02/12 08:24:34;;;;;;;13.27;5.07;;;0.90;99.90;;;;;;5073131;28;20032;-82
2022/02/12 08:27:01;;;;;;;7.97;4.32;;;1.00;99.90;;;;;;5055119;28;20025;-79
2022/02/12 08:29:28;;;;;;;14.18;4.88;;;1.20;99.90;;;;;;5054265;28;20115;-80
2022/02/12 08:32:00;;;;;;;19.25;5.75;;;1.30;99.60;;;;;;5055542;28;20025;-80
2022/02/12 08:34:27;;;;;;;20.13;5.75;;;1.50;99.00;;;;;;5056380;28;20035;-78
2022/02/12 08:36:54;;;;;;;18.92;5.50;;;1.60;98.70;;;;;;5072799;28;20026;-81
2022/02/12 08:39:21;;;;;;;8.70;4.15;;;1.70;98.90;;;;;;5054651;28;20036;-78
2022/02/12 08:41:47;;;;;;;13.40;4.47;;;1.80;98.80;;;;;;5072880;28;20032;-79
2022/02/12 08:44:13;;;;;;;11.50;4.03;;;1.90;98.70;;;;;;5072960;28;20448;-79
2022/02/12 08:46:39;;;;;;;34.90;10.95;;;2.90;99.90;;;;;;5054911;28;20052;-77
2022/02/12 08:49:06;;;;;;;35.42;14.98;;;4.70;99.90;;;;;;5054810;28;20044;-78
2022/02/12 08:51:37;;;;;;;30.83;13.82;;;4.80;97.30;;;;;;5054721;28;20498;-79
2022/02/12 08:54:07;;;;;;;14.43;6.95;;;3.50;95.50;;;;;;5072697;28;20471;-78
2022/02/12 08:56:34;;;;;;;20.20;8.48;;;3.30;95.10;;;;;;5072525;28;20016;-76
2022/02/12 08:59:00;;;;;;;17.70;6.82;;;4.50;95.30;;;;;;5072511;28;20032;-79
2022/02/12 09:01:26;;;;;;;13.60;6.10;;;3.60;95.40;;;;;;5071980;28;20017;-76
2022/02/12 09:03:52;;;;;;;6.75;3.47;;;4.40;96.80;;;;;;5072319;28;20026;-76
2022/02/12 09:06:18;;;;;;;7.22;4.13;;;4.80;93.90;;;;;;5082790;28;20040;-75
2022/02/12 09:08:43;;;;;;;9.15;4.78;;;4.00;92.80;;;;;;5092061;28;20028;-76
2022/02/12 09:11:09;;;;;;;6.57;4.00;;;4.30;93.10;;;;;;5091482;28;20047;-76
2022/02/12 09:13:35;;;;;;;7.55;1.98;;;5.20;93.40;;;;;;5075982;28;20441;-78
2022/02/12 09:16:00;;;;;;;4.18;1.80;;;4.50;93.00;;;;;;5071643;28;20021;-78
2022/02/12 09:18:26;;;;;;;4.65;2.08;;;4.60;92.60;;;;;;5072182;28;20487;-77
2022/02/12 09:20:52;;;;;;;2.70;1.42;;;4.50;93.20;;;;;;5061877;28;20068;-78
2022/02/12 09:23:17;;;;;;;6.97;1.38;;;4.80;93.00;;;;;;5092606;28;20032;-80
2022/02/12 09:25:43;;;;;;;2.00;1.08;;;5.00;93.20;;;;;;5094725;28;20102;-80
2022/02/12 09:28:08;;;;;;;1.90;1.40;;;5.20;93.10;;;;;;5074150;28;20616;-80
2022/02/12 09:30:35;;;;;;;9.52;2.28;;;4.80;93.80;;;;;;5092716;28;20035;-78
2022/02/12 09:33:00;;;;;;;5.35;1.33;;;4.90;95.40;;;;;;5092313;28;20035;-80
2022/02/12 09:35:26;;;;;;;7.00;1.63;;;5.60;95.00;;;;;;5074113;28;20024;-79
2022/02/12 09:37:51;;;;;;;2.72;1.80;;;5.30;95.20;;;;;;5090960;28;20103;-78
2022/02/12 09:40:17;;;;;;;5.65;2.28;;;5.20;95.70;;;;;;5071395;28;20039;-78
2022/02/12 09:42:47;;;;;;;3.05;1.50;;;5.50;99.10;;;;;;5073785;28;20424;-78
2022/02/12 09:45:13;;;;;;;2.47;1.38;;;5.70;94.80;;;;;;5091346;28;20510;-80
2022/02/12 09:47:39;;;;;;;3.55;1.25;;;6.00;97.20;;;;;;5074473;28;20045;-79
2022/02/12 09:50:05;;;;;;;5.65;2.25;;;5.60;94.20;;;;;;5091122;28;20016;-79
2022/02/12 09:52:33;;;;;;;2.40;1.40;;;5.70;95.40;;;;;;5072174;28;20048;-81
2022/02/12 09:54:59;;;;;;;2.75;1.45;;;5.70;96.70;;;;;;5073713;28;20085;-79
2022/02/12 09:57:26;;;;;;;3.40;1.30;;;6.10;95.90;;;;;;5091683;28;20488;-79
2022/02/12 09:59:59;;;;;;;7.25;4.18;;;6.00;96.60;;;;;;5075600;28;20062;-79
2022/02/12 10:02:25;;;;;;;5.95;4.68;;;6.10;98.30;;;;;;5075788;28;20024;-80
2022/02/12 10:05:26;;;;;;;3.05;2.10;;;6.20;90.70;;;;;;5075398;28;20470;-78
2022/02/12 10:08:15;;;;;;;3.38;1.83;;;6.30;85.80;;;;;;5091457;28;20482;-78
2022/02/12 10:10:41;;;;;;;4.63;1.70;;;6.50;82.70;;;;;;5091812;28;20027;-79
2022/02/12 10:13:14;;;;;;;3.72;2.85;;;6.40;82.10;;;;;;5065958;28;20486;-79
2022/02/12 10:15:48;;;;;;;4.18;2.28;;;6.50;82.60;;;;;;5081755;28;20056;-80
2022/02/12 10:18:14;;;;;;;5.18;2.38;;;6.50;82.90;;;;;;5074513;28;20079;-79
2022/02/12 10:20:43;;;;;;;2.45;1.00;;;6.50;82.80;;;;;;5073480;28;20028;-78
2022/02/12 10:23:13;;;;;;;3.58;1.10;;;6.40;79.50;;;;;;5075153;28;20111;-78
2022/02/12 10:25:42;;;;;;;1.65;1.15;;;6.60;78.20;;;;;;5077211;28;20020;-79
2022/02/12 10:28:10;;;;;;;1.83;0.95;;;6.60;77.00;;;;;;5077080;28;20066;-79
2022/02/12 10:30:36;;;;;;;1.10;0.75;;;6.50;78.20;;;;;;5077400;28;20016;-84
2022/02/12 10:33:05;;;;;;;2.10;1.13;;;6.60;77.10;;;;;;5079417;28;20737;-84
2022/02/12 10:35:32;;;;;;;2.40;1.02;;;6.60;77.70;;;;;;5076825;28;20023;-80
2022/02/12 10:38:02;;;;;;;6.03;2.97;;;6.80;78.10;;;;;;5095085;28;20494;-78
2022/02/12 10:40:28;;;;;;;9.13;7.00;;;7.10;90.20;;;;;;5076915;28;20040;-78
2022/02/12 10:42:55;;;;;;;9.98;4.63;;;7.40;78.80;;;;;;5095339;28;20392;-76
2022/02/12 10:45:22;;;;;;;2.60;1.83;;;7.50;76.00;;;;;;5076694;28;20111;-76
2022/02/12 10:47:49;;;;;;;3.63;1.40;;;7.60;75.00;;;;;;5094849;28;20110;-74
2022/02/12 10:50:16;;;;;;;1.75;1.02;;;7.60;74.70;;;;;;5094393;28;20012;-78
2022/02/12 10:52:43;;;;;;;2.38;1.30;;;7.60;75.60;;;;;;5094857;28;20099;-79
2022/02/12 10:55:25;;;;;;;2.55;1.13;;;7.70;75.00;;;;;;5094623;28;20496;-75
2022/02/12 10:57:52;;;;;;;2.92;0.90;;;7.50;74.40;;;;;;5094533;28;20020;-78
2022/02/12 11:00:18;;;;;;;2.25;1.00;;;7.40;75.30;;;;;;5094191;28;20031;-79
2022/02/12 11:02:44;;;;;;;3.58;1.00;;;7.20;75.10;;;;;;5094234;28;20043;-78
2022/02/12 11:05:11;;;;;;;2.97;1.10;;;7.20;75.00;;;;;;5075812;28;20601;-76
2022/02/12 11:07:37;;;;;;;3.38;0.88;;;7.20;75.20;;;;;;5076658;28;20032;-78
2022/02/12 11:10:02;;;;;;;2.50;0.90;;;7.10;74.30;;;;;;5094359;28;20078;-78
2022/02/12 11:12:29;;;;;;;0.80;0.80;;;7.00;74.30;;;;;;5094366;28;20106;-77
2022/02/12 11:14:55;;;;;;;0.98;0.80;;;7.00;74.10;;;;;;5075571;28;20028;-78
2022/02/12 11:17:22;;;;;;;3.53;0.82;;;7.00;73.70;;;;;;5093992;28;20554;-78
2022/02/12 11:19:52;;;;;;;4.00;1.92;;;6.80;72.40;;;;;;5094053;28;20032;-79
2022/02/12 11:22:18;;;;;;;2.20;1.60;;;6.70;71.90;;;;;;5076174;28;20048;-79
2022/02/12 11:24:44;;;;;;;2.53;1.60;;;6.70;72.80;;;;;;5076022;28;20040;-80
2022/02/12 11:27:29;;;;;;;3.15;0.70;;;6.70;72.60;;;;;;5076183;28;20062;-78
2022/02/12 11:29:56;;;;;;;1.60;0.90;;;6.90;72.70;;;;;;5093856;28;20028;-78
2022/02/12 11:32:24;;;;;;;1.17;0.90;;;7.00;70.10;;;;;;5093878;28;20020;-77
2022/02/12 11:34:55;;;;;;;1.00;0.70;;;7.00;69.20;;;;;;5092692;28;20020;-78
2022/02/12 11:37:22;;;;;;;1.38;0.65;;;7.00;69.10;;;;;;5093890;28;20028;-78
2022/02/12 11:40:17;;;;;;;1.02;0.60;;;6.80;68.70;;;;;;5093623;28;20092;-78
2022/02/12 11:42:56;;;;;;;0.73;0.73;;;6.70;69.40;;;;;;5093776;28;20344;-78
2022/02/12 11:45:41;;;;;;;3.30;1.25;;;6.60;69.80;;;;;;5075696;28;20058;-78
2022/02/12 11:48:25;;;;;;;2.40;1.15;;;6.50;70.60;;;;;;5093723;28;20024;-78
2022/02/12 11:50:53;;;;;;;1.10;0.55;;;6.50;72.00;;;;;;5093614;28;20027;-78
2022/02/12 11:53:46;;;;;;;1.88;0.70;;;6.50;71.60;;;;;;5093067;28;20020;-79
2022/02/12 11:56:17;;;;;;;4.68;0.90;;;6.80;81.40;;;;;;5093564;28;20028;-77
2022/02/12 11:58:46;;;;;;;1.83;1.35;;;6.80;71.30;;;;;;5093152;28;20089;-77
2022/02/12 12:01:32;;;;;;;2.67;1.20;;;6.80;70.30;;;;;;5075433;28;20036;-75
2022/02/12 12:04:14;;;;;;;0.80;0.77;;;6.70;70.00;;;;;;5074970;28;20035;-77
2022/02/12 12:07:02;;;;;;;6.03;1.15;;;6.70;70.70;;;;;;5093557;28;20478;-76
2022/02/12 12:09:31;;;;;;;1.25;0.70;;;6.90;70.40;;;;;;5075052;28;20059;-77
2022/02/12 12:12:13;;;;;;;2.15;0.93;;;7.00;69.20;;;;;;5075351;28;20024;-78
2022/02/12 12:14:39;;;;;;;4.47;0.90;;;7.20;68.10;;;;;;5092989;28;20103;-77
2022/02/12 12:17:05;;;;;;;3.45;1.50;;;7.30;67.50;;;;;;5092843;28;20540;-76
2022/02/12 12:19:33;;;;;;;4.05;1.52;;;7.40;67.80;;;;;;5093032;28;20092;-75
2022/02/12 12:22:00;;;;;;;3.50;1.08;;;7.30;67.60;;;;;;5092926;28;20066;-78
2022/02/12 12:24:26;;;;;;;2.83;0.85;;;7.30;66.90;;;;;;5074800;28;20056;-78
2022/02/12 12:26:52;;;;;;;0.55;0.52;;;7.10;67.10;;;;;;5091772;28;20455;-77
2022/02/12 12:32:23;;;;;;;;;;;6.90;67.70;;;;;;5093438;28;20116;-79
2022/02/12 12:35:00;;;;;;;7.20;0.95;;;6.80;67.80;;;;;;5092702;28;19908;-78
2022/02/12 12:37:27;;;;;;;10.32;3.80;;;6.70;68.50;;;;;;5092782;28;20020;-78
2022/02/12 12:39:57;;;;;;;10.65;4.65;;;6.60;69.10;;;;;;5091779;28;20035;-77
2022/02/12 12:42:24;;;;;;;3.03;2.50;;;6.60;68.30;;;;;;5092642;28;20655;-74
2022/02/12 12:45:14;;;;;;;4.65;1.17;;;6.40;69.40;;;;;;5092781;28;20020;-78
2022/02/12 12:47:54;;;;;;;5.85;1.00;;;6.50;69.50;;;;;;5075028;28;20027;-81
2022/02/12 12:50:20;;;;;;;1.88;0.80;;;6.40;70.10;;;;;;5061244;28;20054;-79
2022/02/12 12:52:46;;;;;;;5.07;4.63;;;7.00;77.20;;;;;;5072076;28;20021;-76
2022/02/12 12:55:19;;;;;;;4.05;3.30;;;7.50;75.70;;;;;;5054395;28;20051;-75
2022/02/12 12:57:45;;;;;;;0.95;0.60;;;8.10;74.00;;;;;;5072459;28;20021;-77
2022/02/12 13:00:16;;;;;;;1.35;0.70;;;8.50;70.40;;;;;;5072101;28;20032;-77
2022/02/12 13:02:53;;;;;;;2.15;0.82;;;8.80;69.40;;;;;;5072150;28;20021;-77